Peau De Balle X — FAD2084 — position and weather

sailwx.info

Track history (hours):
 
Tides and Currents Weather Stations Pressure Air Temp Water Temp Dewpoint Dewpoint Depression Visibility Wind Speed Wind Dir Waves Ship Positions

Peau De Balle X

Last reported at 2017-Sep-02 17:23 UTC. Time now 2017-Sep-25 11:45 UTC.
Position N 47°33' W 002°54'.
Warning: this ship's position is 22 days out of date.

Type: Sailing vessel. MMSI: 227370010.

Date/timePositionNaut miles runAvg speedWind from/ knotsBaromVisibWave heightAir tempDewpointWater temp
2017-Sep-02 17:23N 47°33' W 002°54'0 0.0
2017-Sep-02 16:59N 47°33' W 002°54'1 2.4
2017-Sep-02 16:30N 47°32' W 002°55'4 6.9
2017-Sep-02 16:00N 47°28' W 002°54'4 6.9
2017-Sep-02 15:29N 47°25' W 002°53'4 2.5
2017-Sep-02 13:44N 47°21' W 002°52'0 0.0
2017-Sep-02 13:26N 47°21' W 002°52'0 0.0
2017-Sep-02 12:14N 47°21' W 002°52'1 1.8
2017-Sep-02 11:56N 47°21' W 002°52'1 3.0
2017-Sep-02 11:30N 47°22' W 002°53'4 7.6
2017-Sep-02 11:00N 47°26' W 002°54'4 7.7
2017-Sep-02 10:28N 47°30' W 002°54'2 5.0
2017-Sep-02 10:00N 47°32' W 002°54'1 1.2
2017-Sep-02 09:28N 47°33' W 002°54'  
Track history (hours):
 
Tides and Currents Weather Stations Pressure Air Temp Water Temp Dewpoint Dewpoint Depression Visibility Wind Speed Wind Dir Waves Ship Positions

Peau De Balle X

Last reported at 2017-Sep-02 17:23 UTC. Time now 2017-Sep-25 11:45 UTC.
Position N 47°33' W 002°54'.
Warning: this ship's position is 22 days out of date.

Type: Sailing vessel. MMSI: 227370010.

Date/timePositionNaut miles runAvg speedWind from/ knotsBaromVisibWave heightAir tempDewpointWater temp
2017-Sep-02 17:23N 47°33' W 002°54'0 0.0
2017-Sep-02 16:59N 47°33' W 002°54'1 2.4
2017-Sep-02 16:30N 47°32' W 002°55'4 6.9
2017-Sep-02 16:00N 47°28' W 002°54'4 6.9
2017-Sep-02 15:29N 47°25' W 002°53'4 2.5
2017-Sep-02 13:44N 47°21' W 002°52'0 0.0
2017-Sep-02 13:26N 47°21' W 002°52'0 0.0
2017-Sep-02 12:14N 47°21' W 002°52'1 1.8
2017-Sep-02 11:56N 47°21' W 002°52'1 3.0
2017-Sep-02 11:30N 47°22' W 002°53'4 7.6
2017-Sep-02 11:00N 47°26' W 002°54'4 7.7
2017-Sep-02 10:28N 47°30' W 002°54'2 5.0
2017-Sep-02 10:00N 47°32' W 002°54'1 1.2
2017-Sep-02 09:28N 47°33' W 002°54'  

Dump ship's entire track history